Reeds Spring, Missouri
Current Conditions -  °F | °C
As of 4:55 AM on Friday 19 Dec 2014 (Local Time) from KFWB Reporting Station
Haze Haze  
Wind Chill: 37°   Ceiling: 400
Heat Index: 37°   Visibility: 6mi
Dew Point: 37°   Wind: 3mph
Humidity: 100%   Direction: 130°SE
Pressure: 30.2"   Gusts: NA
Location:  36.75°N, 93.38°W
Report Text: KFWB 191055Z AUTO 13003KT 6SM BR OVC004 03/03 A3020 RMK AO2
Loading
Personal Weather Stations






























Interactive Weather Map New forecast layout! Learn more

10-Day Weather Forecast

Advertisements
Track Severe Weather on mobile